createdAt,value
2016-09-11T00:00:22.845Z,65.37
2016-09-11T00:01:28.938Z,65.90
2016-09-11T00:02:27.190Z,66.05
2016-09-11T00:03:28.682Z,66.12
2016-09-11T00:04:21.702Z,66.00
2016-09-11T00:05:29.979Z,65.13
2016-09-11T00:06:21.132Z,64.95
2016-09-11T00:07:31.633Z,64.83
2016-09-11T00:08:29.169Z,64.77
2016-09-11T00:09:26.884Z,64.73
2016-09-11T00:10:33.486Z,64.72
2016-09-11T00:11:22.023Z,65.08
2016-09-11T00:12:38.181Z,65.75
2016-09-11T00:13:21.090Z,65.94
2016-09-11T00:14:21.893Z,66.04
2016-09-11T00:15:29.528Z,66.13
2016-09-11T00:16:25.545Z,66.12
2016-09-11T00:17:25.349Z,66.18
2016-09-11T00:18:26.581Z,66.16
2016-09-11T00:19:37.443Z,66.19
2016-09-11T00:20:26.329Z,66.22
2016-09-11T00:21:37.586Z,66.24
2016-09-11T00:22:27.189Z,66.23
2016-09-11T00:23:21.395Z,66.24
2016-09-11T00:24:31.337Z,66.23
2016-09-11T00:25:18.440Z,66.24
2016-09-11T00:26:23.671Z,66.26
2016-09-11T00:27:19.482Z,66.25
2016-09-11T00:28:26.244Z,66.28
2016-09-11T00:29:21.458Z,66.28
2016-09-11T00:30:22.288Z,66.27
2016-09-11T00:31:23.535Z,66.27
2016-09-11T00:32:24.567Z,66.28
2016-09-11T00:33:20.241Z,66.29
2016-09-11T00:34:31.942Z,66.31
2016-09-11T00:35:22.091Z,66.31
2016-09-11T00:36:43.198Z,66.32
2016-09-11T00:37:31.543Z,66.31
2016-09-11T00:38:24.238Z,66.32
2016-09-11T00:39:21.308Z,66.31
2016-09-11T00:40:22.995Z,66.34
2016-09-11T00:41:26.011Z,66.36
2016-09-11T00:42:28.704Z,66.32
2016-09-11T00:43:20.891Z,66.37
2016-09-11T00:44:20.116Z,66.36
2016-09-11T00:45:26.238Z,66.37
2016-09-11T00:46:33.179Z,66.37
2016-09-11T00:47:23.731Z,66.37
2016-09-11T00:48:25.674Z,66.37
2016-09-11T00:49:14.731Z,66.39
2016-09-11T00:50:28.319Z,66.40
2016-09-11T00:51:22.703Z,66.41
2016-09-11T00:52:30.089Z,66.40
2016-09-11T00:53:30.726Z,66.41
2016-09-11T00:54:26.894Z,66.41
2016-09-11T00:55:27.867Z,66.43
2016-09-11T00:56:24.916Z,66.40
2016-09-11T00:57:28.560Z,66.42
2016-09-11T00:58:43.357Z,66.43
2016-09-11T00:59:26.759Z,66.44
2016-09-11T01:00:23.585Z,66.44
2016-09-11T01:01:20.447Z,66.44
2016-09-11T01:02:43.726Z,66.44
2016-09-11T01:03:15.676Z,66.44
2016-09-11T01:04:35.421Z,66.46
2016-09-11T01:05:31.352Z,66.44
2016-09-11T01:06:21.385Z,66.45
2016-09-11T01:07:29.501Z,66.46
2016-09-11T01:08:25.117Z,66.47
2016-09-11T01:09:21.636Z,66.45
2016-09-11T01:10:22.074Z,66.46
2016-09-11T01:11:22.977Z,66.47
2016-09-11T01:12:16.534Z,66.47
2016-09-11T01:13:32.215Z,66.48
2016-09-11T01:14:27.122Z,66.47
2016-09-11T01:15:35.759Z,66.48
2016-09-11T01:16:32.259Z,66.49
2016-09-11T01:17:27.658Z,66.49
2016-09-11T01:18:22.524Z,66.49
2016-09-11T01:19:33.241Z,66.48
2016-09-11T01:20:27.898Z,66.48
2016-09-11T01:21:22.719Z,66.49
2016-09-11T01:22:24.695Z,66.48
2016-09-11T01:23:19.176Z,66.50
2016-09-11T01:24:20.719Z,66.50
2016-09-11T01:25:22.501Z,66.50
2016-09-11T01:26:30.775Z,66.50
2016-09-11T01:27:33.601Z,66.52
2016-09-11T01:28:22.233Z,66.51
2016-09-11T01:29:31.672Z,66.52
2016-09-11T01:30:28.253Z,66.54
2016-09-11T01:31:24.969Z,66.54
2016-09-11T01:32:28.814Z,66.54
2016-09-11T01:33:17.020Z,66.55
2016-09-11T01:34:32.289Z,66.56
2016-09-11T01:35:30.834Z,66.57
2016-09-11T01:36:22.238Z,66.58
2016-09-11T01:37:33.743Z,66.58
2016-09-11T01:38:20.411Z,66.60
2016-09-11T01:39:32.399Z,66.58
2016-09-11T01:40:33.330Z,66.61
2016-09-11T01:41:32.506Z,66.62
2016-09-11T01:42:15.566Z,66.59
2016-09-11T01:43:26.988Z,66.62
2016-09-11T01:44:33.237Z,66.62
2016-09-11T01:45:33.189Z,66.63
2016-09-11T01:46:32.769Z,66.48
2016-09-11T01:47:33.390Z,65.59
2016-09-11T01:48:31.167Z,65.37
2016-09-11T01:49:33.498Z,65.28
2016-09-11T01:50:19.429Z,65.19
2016-09-11T01:51:26.344Z,65.18
2016-09-11T01:52:28.503Z,65.53
2016-09-11T01:53:41.106Z,66.24
2016-09-11T01:54:21.767Z,66.41
2016-09-11T01:55:33.881Z,66.51
2016-09-11T01:56:19.725Z,66.56
2016-09-11T01:57:33.607Z,66.61
2016-09-11T01:58:19.944Z,66.64
2016-09-11T01:59:18.414Z,66.69
2016-09-11T02:00:20.050Z,66.67
2016-09-11T02:01:24.887Z,66.70
2016-09-11T02:02:26.426Z,66.69
2016-09-11T02:03:42.564Z,66.69
2016-09-11T02:04:29.308Z,66.72
2016-09-11T02:05:33.677Z,66.70
2016-09-11T02:06:27.349Z,66.71
2016-09-11T02:07:28.086Z,66.70
2016-09-11T02:08:17.663Z,66.74
2016-09-11T02:09:25.867Z,65.98
2016-09-11T02:10:23.742Z,66.55
2016-09-11T02:11:31.035Z,65.57
2016-09-11T02:12:26.822Z,65.39
2016-09-11T02:13:17.600Z,65.31
2016-09-11T02:14:19.344Z,65.24
2016-09-11T02:15:21.962Z,65.22
2016-09-11T02:16:26.928Z,65.19
2016-09-11T02:17:38.495Z,65.55
2016-09-11T02:18:36.481Z,66.26
2016-09-11T02:19:21.840Z,66.44
2016-09-11T02:20:32.858Z,66.37
2016-09-11T02:21:38.385Z,65.57
2016-09-11T02:22:36.842Z,65.39
2016-09-11T02:23:20.491Z,65.30
2016-09-11T02:24:30.895Z,66.28
2016-09-11T02:25:22.964Z,66.48
2016-09-11T02:26:27.524Z,66.58
2016-09-11T02:27:28.598Z,66.65
2016-09-11T02:28:35.015Z,66.68
2016-09-11T02:29:23.758Z,66.73
2016-09-11T02:30:24.691Z,66.73
2016-09-11T02:31:32.949Z,66.71
2016-09-11T02:32:23.769Z,66.73
2016-09-11T02:33:39.389Z,66.78
2016-09-11T02:34:45.907Z,66.77
2016-09-11T02:35:36.939Z,66.78
2016-09-11T02:36:26.685Z,66.79
2016-09-11T02:37:22.419Z,66.79
2016-09-11T02:38:25.050Z,66.78
2016-09-11T02:39:33.085Z,66.78
2016-09-11T02:40:17.812Z,66.81
2016-09-11T02:41:32.146Z,66.82
2016-09-11T02:42:30.265Z,66.83
2016-09-11T02:43:29.396Z,66.82
2016-09-11T02:44:30.827Z,66.85
2016-09-11T02:45:34.059Z,66.85
2016-09-11T02:46:18.148Z,66.86
2016-09-11T02:47:33.210Z,66.85
2016-09-11T02:48:22.761Z,66.85
2016-09-11T02:49:27.477Z,66.88
2016-09-11T02:50:28.414Z,66.89
2016-09-11T02:51:22.381Z,66.91
2016-09-11T02:52:21.057Z,66.92
2016-09-11T02:53:27.357Z,66.92
2016-09-11T02:54:38.278Z,66.94
2016-09-11T02:55:18.007Z,66.95
2016-09-11T02:56:25.789Z,66.94
2016-09-11T02:57:30.721Z,66.93
2016-09-11T02:58:38.438Z,66.92
2016-09-11T02:59:34.781Z,66.94
2016-09-11T03:00:21.879Z,66.96
2016-09-11T03:01:24.813Z,66.99
2016-09-11T03:02:32.394Z,66.96
2016-09-11T03:03:33.426Z,66.96
2016-09-11T03:04:39.162Z,66.97
2016-09-11T03:05:25.421Z,66.97
2016-09-11T03:06:36.497Z,67.02
2016-09-11T03:07:30.904Z,67.01
2016-09-11T03:08:37.512Z,66.99
2016-09-11T03:09:25.881Z,67.00
2016-09-11T03:10:16.670Z,67.01
2016-09-11T03:11:15.873Z,66.99
2016-09-11T03:12:33.967Z,66.98
2016-09-11T03:13:27.975Z,66.98
2016-09-11T03:14:37.095Z,67.01
2016-09-11T03:15:21.376Z,66.99
2016-09-11T03:16:31.749Z,66.98
2016-09-11T03:17:26.557Z,66.99
2016-09-11T03:18:21.049Z,66.98
2016-09-11T03:19:32.459Z,67.00
2016-09-11T03:20:34.056Z,66.98
2016-09-11T03:21:21.942Z,67.00
2016-09-11T03:22:33.847Z,67.02
2016-09-11T03:23:19.681Z,67.04
2016-09-11T03:24:34.610Z,67.04
2016-09-11T03:25:31.516Z,67.03
2016-09-11T03:26:26.325Z,67.04
2016-09-11T03:27:26.414Z,67.04
2016-09-11T03:28:15.693Z,67.05
2016-09-11T03:29:29.217Z,67.05
2016-09-11T03:30:30.642Z,67.03
2016-09-11T03:31:24.859Z,67.03
2016-09-11T03:32:34.936Z,67.03
2016-09-11T03:33:21.620Z,67.04
2016-09-11T03:34:28.534Z,67.04
2016-09-11T03:35:22.247Z,67.03
2016-09-11T03:36:27.120Z,67.03
2016-09-11T03:37:34.701Z,67.03
2016-09-11T03:38:21.527Z,66.87
2016-09-11T03:39:32.121Z,66.00
2016-09-11T03:40:31.756Z,65.77
2016-09-11T03:41:27.190Z,65.64
2016-09-11T03:42:33.480Z,65.57
2016-09-11T03:43:34.130Z,66.57
2016-09-11T03:44:26.550Z,66.82
2016-09-11T03:45:25.940Z,66.90
2016-09-11T03:46:20.693Z,66.95
2016-09-11T03:47:25.459Z,66.96
2016-09-11T03:48:37.294Z,66.99
2016-09-11T03:49:33.028Z,67.00
2016-09-11T03:50:27.597Z,67.01
2016-09-11T03:51:27.252Z,67.04
2016-09-11T03:52:27.356Z,67.03
2016-09-11T03:53:30.742Z,67.02
2016-09-11T03:54:34.689Z,67.02
2016-09-11T03:55:38.733Z,67.02
2016-09-11T03:56:35.762Z,67.01
2016-09-11T03:57:38.957Z,67.03
2016-09-11T03:58:28.514Z,66.96
2016-09-11T03:59:28.463Z,65.93
2016-09-11T04:00:27.497Z,65.77
2016-09-11T04:01:32.024Z,66.68
2016-09-11T04:02:26.050Z,66.85
2016-09-11T04:03:13.028Z,66.94
2016-09-11T04:04:21.677Z,66.99
2016-09-11T04:05:25.179Z,66.97
2016-09-11T04:06:22.338Z,66.99
2016-09-11T04:07:33.598Z,67.02
2016-09-11T04:08:27.376Z,67.01
2016-09-11T04:09:25.879Z,67.03
2016-09-11T04:10:18.152Z,67.05
2016-09-11T04:11:38.740Z,67.01
2016-09-11T04:12:21.318Z,67.01
2016-09-11T04:13:27.534Z,67.01
2016-09-11T04:14:19.421Z,67.01
2016-09-11T04:15:22.079Z,67.02
2016-09-11T04:16:26.083Z,67.03
2016-09-11T04:17:36.448Z,67.00
2016-09-11T04:18:22.123Z,67.02
2016-09-11T04:19:30.291Z,67.02
2016-09-11T04:20:34.373Z,67.03
2016-09-11T04:21:21.856Z,67.03
2016-09-11T04:22:21.310Z,67.03
2016-09-11T04:23:31.775Z,67.01
2016-09-11T04:24:21.554Z,67.02
2016-09-11T04:25:22.329Z,67.04
2016-09-11T04:26:30.863Z,67.03
2016-09-11T04:27:29.744Z,67.01
2016-09-11T04:28:22.195Z,66.99
2016-09-11T04:29:28.958Z,66.98
2016-09-11T04:30:20.136Z,67.00
2016-09-11T04:31:21.582Z,66.98
2016-09-11T04:32:21.895Z,67.00
2016-09-11T04:33:26.819Z,66.99
2016-09-11T04:34:26.073Z,66.98
2016-09-11T04:35:31.961Z,66.98
2016-09-11T04:36:32.678Z,66.99
2016-09-11T04:37:34.021Z,67.00
2016-09-11T04:38:30.892Z,66.99
2016-09-11T04:39:15.259Z,66.97
2016-09-11T04:40:29.340Z,67.01
2016-09-11T04:41:18.993Z,67.01
2016-09-11T04:42:19.001Z,66.86
2016-09-11T04:43:16.447Z,65.95
2016-09-11T04:44:25.272Z,65.70
2016-09-11T04:45:16.359Z,65.99
2016-09-11T04:46:20.771Z,66.63
2016-09-11T04:47:38.800Z,66.81
2016-09-11T04:48:22.423Z,66.89
2016-09-11T04:49:22.504Z,66.89
2016-09-11T04:50:25.613Z,66.93
2016-09-11T04:51:23.972Z,66.97
2016-09-11T04:52:20.393Z,66.99
2016-09-11T04:53:21.252Z,66.98
2016-09-11T04:54:22.263Z,67.01
2016-09-11T04:55:25.036Z,67.01
2016-09-11T04:56:39.908Z,67.01
2016-09-11T04:57:21.159Z,67.00
2016-09-11T04:58:16.561Z,67.01
2016-09-11T04:59:34.721Z,67.02
2016-09-11T05:00:24.759Z,67.00
2016-09-11T05:01:31.511Z,67.00
2016-09-11T05:02:33.380Z,67.04
2016-09-11T05:03:27.992Z,67.02
2016-09-11T05:04:41.810Z,67.02
2016-09-11T05:05:42.730Z,67.03
2016-09-11T05:06:33.568Z,67.02
2016-09-11T05:07:41.739Z,67.02
2016-09-11T05:08:37.850Z,67.02
2016-09-11T05:09:49.706Z,67.01
2016-09-11T05:10:32.919Z,67.00
2016-09-11T05:11:50.134Z,67.01
2016-09-11T05:12:46.819Z,67.01
2016-09-11T05:13:38.697Z,67.00
2016-09-11T05:14:44.079Z,67.01
2016-09-11T05:15:43.602Z,66.99
2016-09-11T05:16:59.748Z,66.82
2016-09-11T05:17:43.197Z,65.92
2016-09-11T05:18:42.888Z,66.10
2016-09-11T05:19:50.369Z,66.58
2016-09-11T05:20:44.125Z,65.74
2016-09-11T05:21:39.296Z,65.57
2016-09-11T05:22:30.481Z,65.79
2016-09-11T05:23:37.237Z,66.52
2016-09-11T05:24:36.389Z,66.72
2016-09-11T05:25:37.492Z,66.81
2016-09-11T05:26:45.210Z,66.73
2016-09-11T05:27:44.102Z,65.84
2016-09-11T05:28:44.424Z,65.64
2016-09-11T05:29:43.181Z,64.14
2016-09-11T05:30:48.713Z,65.48
2016-09-11T05:31:34.614Z,66.48
2016-09-11T05:32:45.089Z,66.69
2016-09-11T05:33:42.601Z,66.80
2016-09-11T05:34:45.874Z,66.82
2016-09-11T05:35:47.493Z,66.89
2016-09-11T05:36:30.996Z,66.89
2016-09-11T05:37:49.638Z,66.90
2016-09-11T05:39:17.479Z,66.91
2016-09-11T05:39:29.179Z,66.89
2016-09-11T05:40:39.467Z,66.89
2016-09-11T05:41:49.029Z,66.87
2016-09-11T05:42:47.783Z,66.93
2016-09-11T05:43:39.437Z,66.90
2016-09-11T05:44:15.989Z,66.91
2016-09-11T05:45:49.590Z,66.92
2016-09-11T05:46:34.456Z,66.89
2016-09-11T05:47:43.912Z,66.90
2016-09-11T05:48:49.628Z,66.89
2016-09-11T05:49:46.225Z,66.88
2016-09-11T05:50:43.017Z,66.89
2016-09-11T05:51:47.554Z,66.89
2016-09-11T05:52:47.211Z,66.89
2016-09-11T05:53:39.407Z,66.88
2016-09-11T05:55:08.358Z,66.88
2016-09-11T05:55:44.710Z,66.87
2016-09-11T05:56:45.029Z,66.86
2016-09-11T05:57:49.075Z,66.88
2016-09-11T05:58:42.696Z,66.82
2016-09-11T05:59:43.765Z,66.84
2016-09-11T06:00:44.956Z,66.85
2016-09-11T06:01:40.875Z,66.84
2016-09-11T06:02:44.502Z,66.87
2016-09-11T06:03:39.986Z,66.84
2016-09-11T06:04:48.421Z,66.66
2016-09-11T06:05:49.913Z,65.90
2016-09-11T06:06:45.835Z,65.91
2016-09-11T06:07:50.771Z,66.49
2016-09-11T06:08:45.273Z,66.67
2016-09-11T06:09:38.766Z,66.75
2016-09-11T06:10:44.667Z,66.76
2016-09-11T06:11:36.701Z,66.78
2016-09-11T06:12:39.425Z,66.80
2016-09-11T06:13:40.607Z,66.81
2016-09-11T06:14:39.998Z,66.81
2016-09-11T06:15:46.154Z,66.79
2016-09-11T06:16:59.753Z,66.80
2016-09-11T06:17:33.988Z,66.84
2016-09-11T06:18:37.017Z,65.79
2016-09-11T06:19:49.395Z,65.57
2016-09-11T06:20:42.197Z,65.43
2016-09-11T06:21:41.398Z,65.35
2016-09-11T06:22:59.333Z,65.36
2016-09-11T06:23:38.037Z,65.29
2016-09-11T06:24:16.535Z,66.33
2016-09-11T06:25:44.644Z,66.54
2016-09-11T06:26:59.862Z,66.62
2016-09-11T06:27:45.325Z,66.70
2016-09-11T06:28:44.395Z,66.71
2016-09-11T06:29:44.623Z,66.75
2016-09-11T06:30:44.428Z,66.77
2016-09-11T06:31:39.841Z,66.79
2016-09-11T06:32:46.486Z,66.78
2016-09-11T06:33:37.607Z,66.78
2016-09-11T06:34:58.370Z,66.79
2016-09-11T06:35:49.151Z,66.71
2016-09-11T06:36:48.065Z,66.66
2016-09-11T06:37:59.950Z,66.62
2016-09-11T06:38:43.901Z,66.67
2016-09-11T06:39:39.885Z,66.65
2016-09-11T06:40:38.177Z,66.69
2016-09-11T06:41:44.900Z,66.67
2016-09-11T06:42:44.489Z,66.92
2016-09-11T06:43:44.527Z,66.97
2016-09-11T06:44:47.613Z,66.87
2016-09-11T06:45:45.690Z,66.75
2016-09-11T06:46:49.077Z,66.76
2016-09-11T06:47:46.906Z,66.89
2016-09-11T06:48:43.754Z,67.02
2016-09-11T06:49:47.019Z,67.13
2016-09-11T06:50:43.643Z,67.18
2016-09-11T06:52:13.014Z,67.15
2016-09-11T06:52:48.611Z,67.18
2016-09-11T06:54:00.873Z,67.20
2016-09-11T06:54:44.651Z,67.10
2016-09-11T06:55:59.214Z,67.11
2016-09-11T06:56:37.171Z,67.07
2016-09-11T06:57:42.653Z,67.07
2016-09-11T06:58:44.023Z,67.13
2016-09-11T07:00:09.636Z,67.20
2016-09-11T07:00:33.158Z,67.19
2016-09-11T07:01:43.170Z,67.22
2016-09-11T07:02:39.308Z,67.23
2016-09-11T07:03:45.193Z,67.25
2016-09-11T07:04:39.214Z,67.26
2016-09-11T07:05:38.416Z,67.02
2016-09-11T07:06:38.886Z,66.23
2016-09-11T07:07:48.187Z,65.99
2016-09-11T07:08:43.957Z,65.85
2016-09-11T07:09:47.700Z,65.73
2016-09-11T07:10:49.414Z,65.78
2016-09-11T07:12:01.454Z,65.70
2016-09-11T07:12:36.215Z,66.09
2016-09-11T07:13:49.267Z,66.71
2016-09-11T07:14:39.059Z,66.64
2016-09-11T07:15:49.849Z,66.76
2016-09-11T07:16:56.235Z,66.79
2016-09-11T07:17:44.238Z,66.79
2016-09-11T07:18:29.194Z,66.75
2016-09-11T07:19:55.459Z,66.72
2016-09-11T07:21:15.430Z,66.66
2016-09-11T07:21:58.238Z,66.62
2016-09-11T07:22:43.980Z,66.63
2016-09-11T07:23:38.296Z,66.61
2016-09-11T07:24:48.765Z,66.43
2016-09-11T07:25:59.773Z,66.63
2016-09-11T07:26:45.096Z,66.72
2016-09-11T07:27:48.891Z,66.34
2016-09-11T07:28:49.143Z,66.49
2016-09-11T07:29:55.689Z,66.66
2016-09-11T07:30:44.867Z,66.70
2016-09-11T07:31:47.999Z,66.79
2016-09-11T07:32:43.262Z,67.07
2016-09-11T07:33:59.695Z,66.91
2016-09-11T07:34:42.016Z,66.94
2016-09-11T07:35:43.344Z,66.76
2016-09-11T07:36:42.512Z,66.76
2016-09-11T07:37:38.567Z,66.89
2016-09-11T07:38:40.790Z,66.65
2016-09-11T07:39:48.918Z,65.72
2016-09-11T07:40:45.130Z,65.46
2016-09-11T07:41:38.608Z,65.47
2016-09-11T07:42:59.775Z,66.45
2016-09-11T07:43:59.557Z,66.56
2016-09-11T07:44:37.943Z,66.67
2016-09-11T07:45:47.759Z,66.72
2016-09-11T07:47:20.080Z,66.76
2016-09-11T07:48:06.339Z,66.78
2016-09-11T07:48:59.596Z,66.80
2016-09-11T07:49:56.485Z,66.78
2016-09-11T07:51:19.917Z,66.82
2016-09-11T07:52:14.988Z,66.81
2016-09-11T07:52:47.797Z,66.78
2016-09-11T07:53:50.219Z,66.73
2016-09-11T07:54:49.980Z,66.75
2016-09-11T07:55:45.919Z,66.73
2016-09-11T07:56:48.835Z,66.70
2016-09-11T07:57:44.817Z,66.70
2016-09-11T07:59:44.240Z,66.64
2016-09-11T08:00:44.612Z,66.63
2016-09-11T08:02:03.671Z,66.64
2016-09-11T08:02:47.958Z,66.62
2016-09-11T08:03:51.219Z,66.57
2016-09-11T08:04:44.637Z,66.58
2016-09-11T08:05:50.170Z,66.53
2016-09-11T08:06:56.632Z,66.55
2016-09-11T08:07:52.475Z,66.49
2016-09-11T08:09:06.350Z,66.48
2016-09-11T08:09:33.800Z,66.50
2016-09-11T08:10:49.535Z,66.44
2016-09-11T08:11:39.978Z,66.45
2016-09-11T08:13:01.398Z,66.43
2016-09-11T08:13:51.336Z,66.43
2016-09-11T08:14:58.042Z,66.38
2016-09-11T08:15:56.196Z,66.36
2016-09-11T08:16:38.950Z,66.38
2016-09-11T08:17:45.645Z,66.35
2016-09-11T08:18:55.566Z,66.34
2016-09-11T08:19:49.273Z,66.31
2016-09-11T08:20:50.094Z,66.32
2016-09-11T08:21:45.161Z,66.29
2016-09-11T08:22:49.770Z,66.29
2016-09-11T08:23:50.817Z,66.26
2016-09-11T08:24:46.325Z,66.27
2016-09-11T08:25:51.236Z,66.09
2016-09-11T08:26:48.425Z,65.42
2016-09-11T08:27:37.331Z,65.99
2016-09-11T08:29:05.227Z,66.07
2016-09-11T08:29:59.265Z,66.13
2016-09-11T08:30:45.564Z,66.13
2016-09-11T08:31:45.387Z,66.14
2016-09-11T08:32:58.262Z,66.14
2016-09-11T08:34:14.898Z,66.13
2016-09-11T08:34:51.788Z,66.11
2016-09-11T08:35:40.201Z,66.09
2016-09-11T08:37:01.095Z,66.08
2016-09-11T08:37:46.907Z,66.09
2016-09-11T08:38:47.698Z,66.09
2016-09-11T08:39:13.340Z,66.08
2016-09-11T08:40:49.473Z,66.07
2016-09-11T08:41:40.979Z,66.07
2016-09-11T08:42:49.276Z,66.05
2016-09-11T08:43:44.818Z,66.04
2016-09-11T08:44:31.932Z,66.04
2016-09-11T08:45:39.052Z,66.05
2016-09-11T08:47:31.070Z,66.03
2016-09-11T08:47:43.413Z,65.99
2016-09-11T08:49:04.554Z,65.99
2016-09-11T08:49:44.010Z,65.98
2016-09-11T08:50:43.901Z,65.97
2016-09-11T08:51:56.241Z,65.99
2016-09-11T08:53:01.068Z,66.05
2016-09-11T08:53:58.207Z,66.04
2016-09-11T08:55:18.556Z,66.00
2016-09-11T08:55:49.795Z,66.00
2016-09-11T08:57:03.670Z,66.09
2016-09-11T08:57:42.163Z,66.12
2016-09-11T08:58:44.729Z,66.14
2016-09-11T08:59:43.301Z,66.16
2016-09-11T09:00:49.364Z,66.16
2016-09-11T09:02:20.335Z,66.19
2016-09-11T09:02:56.307Z,66.18
2016-09-11T09:03:43.285Z,66.21
2016-09-11T09:04:45.503Z,66.18
2016-09-11T09:05:40.656Z,66.19
2016-09-11T09:06:55.307Z,66.21
2016-09-11T09:08:13.596Z,66.22
2016-09-11T09:09:13.220Z,66.23
2016-09-11T09:10:14.013Z,66.22
2016-09-11T09:11:00.205Z,66.20
2016-09-11T09:12:03.946Z,66.18
2016-09-11T09:12:57.105Z,66.19
2016-09-11T09:13:51.477Z,66.23
2016-09-11T09:14:45.484Z,66.19
2016-09-11T09:15:44.086Z,66.18
2016-09-11T09:16:38.632Z,66.17
2016-09-11T09:17:39.413Z,66.17
2016-09-11T09:18:46.799Z,66.16
2016-09-11T09:19:51.304Z,66.15
2016-09-11T09:20:38.105Z,66.16
2016-09-11T09:21:43.932Z,66.14
2016-09-11T09:22:41.708Z,66.14
2016-09-11T09:23:48.442Z,66.13
2016-09-11T09:24:47.763Z,66.14
2016-09-11T09:25:44.768Z,66.12
2016-09-11T09:27:13.240Z,66.14
2016-09-11T09:27:56.483Z,66.11
2016-09-11T09:29:01.545Z,66.10
2016-09-11T09:29:44.786Z,66.10
2016-09-11T09:30:45.272Z,66.08
2016-09-11T09:31:44.604Z,66.07
2016-09-11T09:32:49.477Z,65.91
2016-09-11T09:33:43.259Z,65.00
2016-09-11T09:34:55.254Z,65.09
2016-09-11T09:36:24.106Z,65.73
2016-09-11T09:37:02.234Z,65.90
2016-09-11T09:37:45.756Z,65.94
2016-09-11T09:39:14.459Z,65.98
2016-09-11T09:40:33.516Z,65.99
2016-09-11T09:41:01.201Z,65.98
2016-09-11T09:41:59.553Z,65.99
2016-09-11T09:43:09.400Z,65.99
2016-09-11T09:43:37.821Z,65.92
2016-09-11T09:45:04.750Z,64.93
2016-09-11T09:45:43.946Z,64.73
2016-09-11T09:47:01.560Z,65.63
2016-09-11T09:47:52.683Z,65.80
2016-09-11T09:49:22.037Z,65.86
2016-09-11T09:50:05.342Z,65.92
2016-09-11T09:50:47.422Z,65.93
2016-09-11T09:52:00.653Z,65.95
2016-09-11T09:52:50.270Z,65.94
2016-09-11T09:54:00.610Z,65.95
2016-09-11T09:54:32.620Z,65.95
2016-09-11T09:56:00.648Z,65.95
2016-09-11T09:56:49.400Z,65.95
2016-09-11T09:57:59.682Z,65.93
2016-09-11T09:58:50.334Z,65.95
2016-09-11T09:59:55.575Z,65.94
2016-09-11T10:00:44.816Z,65.94
2016-09-11T10:01:30.841Z,65.92
2016-09-11T10:03:09.726Z,65.94
2016-09-11T10:03:49.743Z,65.91
2016-09-11T10:04:46.359Z,65.93
2016-09-11T10:05:59.804Z,65.92
2016-09-11T10:06:37.928Z,65.92
2016-09-11T10:07:47.549Z,65.92
2016-09-11T10:08:44.636Z,65.92
2016-09-11T10:09:47.131Z,65.93
2016-09-11T10:10:48.421Z,65.90
2016-09-11T10:11:39.293Z,65.91
2016-09-11T10:12:38.720Z,65.89
2016-09-11T10:13:43.638Z,65.89
2016-09-11T10:15:00.096Z,65.89
2016-09-11T10:15:48.812Z,65.88
2016-09-11T10:16:50.415Z,65.89
2016-09-11T10:17:49.813Z,65.88
2016-09-11T10:18:46.222Z,65.89
2016-09-11T10:19:48.855Z,65.87
2016-09-11T10:20:51.018Z,65.88
2016-09-11T10:21:45.059Z,65.87
2016-09-11T10:22:56.176Z,65.88
2016-09-11T10:23:32.838Z,65.87
2016-09-11T10:25:13.317Z,65.86
2016-09-11T10:25:44.835Z,65.86
2016-09-11T10:26:59.475Z,65.86
2016-09-11T10:28:06.956Z,65.85
2016-09-11T10:29:19.837Z,65.87
2016-09-11T10:30:03.364Z,65.86
2016-09-11T10:30:39.886Z,65.84
2016-09-11T10:31:50.012Z,65.84
2016-09-11T10:32:39.954Z,65.84
2016-09-11T10:33:43.034Z,65.83
2016-09-11T10:34:48.580Z,65.83
2016-09-11T10:36:00.605Z,65.82
2016-09-11T10:36:44.344Z,65.83
2016-09-11T10:37:45.340Z,65.82
2016-09-11T10:38:49.563Z,65.82
2016-09-11T10:39:15.373Z,65.81
2016-09-11T10:40:37.540Z,65.81
2016-09-11T10:41:59.721Z,65.79
2016-09-11T10:42:58.614Z,65.79
2016-09-11T10:43:39.923Z,65.80
2016-09-11T10:44:44.418Z,65.79
2016-09-11T10:45:39.546Z,65.78
2016-09-11T10:46:44.454Z,65.79
2016-09-11T10:47:40.117Z,65.76
2016-09-11T10:49:00.975Z,65.77
2016-09-11T10:49:58.702Z,65.78
2016-09-11T10:50:43.117Z,65.78
2016-09-11T10:51:45.257Z,65.77
2016-09-11T10:53:05.927Z,65.78
2016-09-11T10:53:49.918Z,65.78
2016-09-11T10:54:50.009Z,65.79
2016-09-11T10:55:34.094Z,65.77
2016-09-11T10:56:49.361Z,65.76
2016-09-11T10:57:44.873Z,65.76
2016-09-11T10:58:47.210Z,65.75
2016-09-11T10:59:44.987Z,65.75
2016-09-11T11:01:01.409Z,65.75
2016-09-11T11:01:46.266Z,65.79
2016-09-11T11:02:44.185Z,65.74
2016-09-11T11:04:13.585Z,65.74
2016-09-11T11:04:47.956Z,65.74
2016-09-11T11:05:51.490Z,65.74
2016-09-11T11:06:49.067Z,65.71
2016-09-11T11:07:43.780Z,65.71
2016-09-11T11:08:38.749Z,65.73
2016-09-11T11:09:44.277Z,65.71
2016-09-11T11:10:44.522Z,65.71
2016-09-11T11:11:43.936Z,65.72
2016-09-11T11:12:53.785Z,65.75
2016-09-11T11:13:40.285Z,65.59
2016-09-11T11:14:45.933Z,65.15
2016-09-11T11:15:59.410Z,65.60
2016-09-11T11:16:43.440Z,65.70
2016-09-11T11:17:33.972Z,65.69
2016-09-11T11:18:41.556Z,65.67
2016-09-11T11:19:44.388Z,65.67
2016-09-11T11:21:04.363Z,65.67
2016-09-11T11:21:38.971Z,65.68
2016-09-11T11:22:38.795Z,65.66
2016-09-11T11:23:57.744Z,65.64
2016-09-11T11:24:48.567Z,65.66
2016-09-11T11:25:44.722Z,65.67
2016-09-11T11:26:39.995Z,65.66
2016-09-11T11:27:44.277Z,65.65
2016-09-11T11:28:39.230Z,65.66
2016-09-11T11:29:44.999Z,65.64
2016-09-11T11:30:49.660Z,65.63
2016-09-11T11:31:48.695Z,65.62
2016-09-11T11:32:51.543Z,65.58
2016-09-11T11:33:50.127Z,65.58
2016-09-11T11:34:44.290Z,65.58
2016-09-11T11:35:42.486Z,65.60
2016-09-11T11:36:44.578Z,65.44
2016-09-11T11:37:45.061Z,64.91
2016-09-11T11:39:01.746Z,65.42
2016-09-11T11:39:45.915Z,65.49
2016-09-11T11:40:49.206Z,65.57
2016-09-11T11:41:44.830Z,65.62
2016-09-11T11:42:50.926Z,65.64
2016-09-11T11:43:44.435Z,65.67
2016-09-11T11:44:42.906Z,65.69
2016-09-11T11:45:49.738Z,65.69
2016-09-11T11:46:44.889Z,65.67
2016-09-11T11:48:01.565Z,65.70
2016-09-11T11:49:07.691Z,65.72
2016-09-11T11:49:49.800Z,65.73
2016-09-11T11:50:40.229Z,65.73
2016-09-11T11:51:44.184Z,65.74
2016-09-11T11:52:48.980Z,65.73
2016-09-11T11:53:50.248Z,65.73
2016-09-11T11:54:38.227Z,65.75
2016-09-11T11:55:44.043Z,65.75
2016-09-11T11:56:47.984Z,65.75
2016-09-11T11:57:44.056Z,65.76
2016-09-11T11:58:47.373Z,65.76
2016-09-11T11:59:43.453Z,65.77
2016-09-11T12:00:59.898Z,65.76
2016-09-11T12:01:37.471Z,65.76
2016-09-11T12:02:44.911Z,65.77
2016-09-11T12:03:44.496Z,65.77
2016-09-11T12:04:39.289Z,65.77
2016-09-11T12:05:48.853Z,65.81
2016-09-11T12:06:44.905Z,65.85
2016-09-11T12:07:43.074Z,64.74
2016-09-11T12:08:57.411Z,64.49
2016-09-11T12:09:58.177Z,64.37
2016-09-11T12:10:59.909Z,64.29
2016-09-11T12:11:43.362Z,64.24
2016-09-11T12:12:49.217Z,64.22
2016-09-11T12:13:39.727Z,64.16
2016-09-11T12:14:45.165Z,64.34
2016-09-11T12:15:44.116Z,65.15
2016-09-11T12:16:45.363Z,65.35
2016-09-11T12:18:04.603Z,65.42
2016-09-11T12:18:41.572Z,65.48
2016-09-11T12:19:42.209Z,65.51
2016-09-11T12:20:34.243Z,65.53
2016-09-11T12:21:47.311Z,65.55
2016-09-11T12:22:59.916Z,65.52
2016-09-11T12:23:42.850Z,65.56
2016-09-11T12:24:50.370Z,65.53
2016-09-11T12:25:45.811Z,65.56
2016-09-11T12:26:40.350Z,65.53
2016-09-11T12:27:44.696Z,65.54
2016-09-11T12:28:50.104Z,65.53
2016-09-11T12:29:41.590Z,65.52
2016-09-11T12:30:59.461Z,65.52
2016-09-11T12:31:48.281Z,65.51
2016-09-11T12:32:44.907Z,65.51
2016-09-11T12:33:48.179Z,65.50
2016-09-11T12:34:44.622Z,65.50
2016-09-11T12:35:49.990Z,65.49
2016-09-11T12:36:49.629Z,65.52
2016-09-11T12:37:40.291Z,65.50
2016-09-11T12:38:46.216Z,65.51
2016-09-11T12:39:41.750Z,65.48
2016-09-11T12:40:56.150Z,65.52
2016-09-11T12:41:48.198Z,65.54
2016-09-11T12:42:44.377Z,65.54
2016-09-11T12:43:43.702Z,65.53
2016-09-11T12:44:49.666Z,65.54
2016-09-11T12:45:59.670Z,65.57
2016-09-11T12:46:58.774Z,65.57
2016-09-11T12:47:39.662Z,65.60
2016-09-11T12:49:01.594Z,65.60
2016-09-11T12:49:42.592Z,65.59
2016-09-11T12:51:07.072Z,65.59
2016-09-11T12:51:39.874Z,65.61
2016-09-11T12:52:38.522Z,65.37
2016-09-11T12:53:51.816Z,64.52